createdAt,value
2018-07-25T00:00:41.965Z,100885.00
2018-07-25T00:03:10.865Z,100885.00
2018-07-25T00:05:39.758Z,100890.00
2018-07-25T00:08:08.648Z,100882.00
2018-07-25T00:10:43.065Z,100878.00
2018-07-25T00:13:11.904Z,100877.00
2018-07-25T00:15:40.699Z,100878.00
2018-07-25T00:18:09.576Z,100879.00
2018-07-25T00:20:38.439Z,100867.00
2018-07-25T00:23:07.403Z,100860.00
2018-07-25T00:25:36.239Z,100869.00
2018-07-25T00:28:05.055Z,100863.00
2018-07-25T00:30:33.911Z,100865.00
2018-07-25T00:33:02.754Z,100861.00
2018-07-25T00:35:31.562Z,100859.00
2018-07-25T00:38:00.576Z,100860.00
2018-07-25T00:40:29.857Z,100869.00
2018-07-25T00:42:59.325Z,100862.00
2018-07-25T00:45:28.208Z,100861.00
2018-07-25T00:47:57.006Z,100867.00
2018-07-25T00:50:25.880Z,100858.00
2018-07-25T00:52:54.762Z,100863.00
2018-07-25T00:55:23.672Z,100855.00
2018-07-25T00:57:52.573Z,100861.00
2018-07-25T01:00:21.464Z,100855.00
2018-07-25T01:02:50.670Z,100859.00
2018-07-25T01:05:19.534Z,100854.00
2018-07-25T01:07:48.384Z,100857.00
2018-07-25T01:10:17.247Z,100853.00
2018-07-25T01:12:46.108Z,100859.00
2018-07-25T01:15:14.984Z,100850.00
2018-07-25T01:17:43.857Z,100853.00
2018-07-25T01:20:12.728Z,100855.00
2018-07-25T01:22:41.551Z,100854.00
2018-07-25T01:25:10.423Z,100850.00
2018-07-25T01:27:39.259Z,100858.00
2018-07-25T01:30:08.068Z,100859.00
2018-07-25T01:32:36.927Z,100859.00
2018-07-25T01:35:05.870Z,100864.00
2018-07-25T01:37:34.756Z,100871.00
2018-07-25T01:40:03.674Z,100869.00
2018-07-25T01:42:32.516Z,100870.00
2018-07-25T01:45:01.397Z,100872.00
2018-07-25T01:47:30.226Z,100870.00
2018-07-25T01:49:59.066Z,100870.00
2018-07-25T01:52:27.923Z,100871.00
2018-07-25T01:54:56.744Z,100878.00
2018-07-25T01:57:25.606Z,100874.00
2018-07-25T01:59:54.432Z,100880.00
2018-07-25T02:02:23.289Z,100882.00
2018-07-25T02:04:52.082Z,100884.00
2018-07-25T02:07:20.933Z,100884.00
2018-07-25T02:09:49.816Z,100876.00
2018-07-25T02:12:18.754Z,100891.00
2018-07-25T02:14:47.647Z,100879.00
2018-07-25T02:17:16.734Z,100885.00
2018-07-25T02:19:45.649Z,100874.00
2018-07-25T02:22:14.590Z,100871.00
2018-07-25T02:24:43.515Z,100881.00
2018-07-25T02:27:12.420Z,100882.00
2018-07-25T02:29:41.297Z,100887.00
2018-07-25T02:32:10.566Z,100884.00
2018-07-25T02:34:39.452Z,100880.00
2018-07-25T02:37:08.284Z,100890.00
2018-07-25T02:39:37.104Z,100879.00
2018-07-25T02:42:06.007Z,100882.00
2018-07-25T02:44:34.881Z,100885.00
2018-07-25T02:47:03.675Z,100877.00
2018-07-25T02:49:32.570Z,100887.00
2018-07-25T02:52:01.450Z,100886.00
2018-07-25T02:54:30.246Z,100892.00
2018-07-25T02:56:59.140Z,100889.00
2018-07-25T02:59:27.984Z,100887.00
2018-07-25T03:01:56.782Z,100889.00
2018-07-25T03:04:25.637Z,100896.00
2018-07-25T03:06:54.433Z,100903.00
2018-07-25T03:09:23.254Z,100894.00
2018-07-25T03:11:52.094Z,100893.00
2018-07-25T03:14:20.940Z,100895.00
2018-07-25T03:16:49.811Z,100916.00
2018-07-25T03:19:19.123Z,100913.00
2018-07-25T03:21:47.975Z,100908.00
2018-07-25T03:24:16.827Z,100913.00
2018-07-25T03:26:45.648Z,100922.00
2018-07-25T03:29:14.447Z,100910.00
2018-07-25T03:31:43.254Z,100922.00
2018-07-25T03:34:12.192Z,100918.00
2018-07-25T03:36:41.042Z,100914.00
2018-07-25T03:39:09.849Z,100920.00
2018-07-25T03:41:38.770Z,100926.00
2018-07-25T03:44:07.595Z,100921.00
2018-07-25T03:46:36.458Z,100925.00
2018-07-25T03:49:05.314Z,100923.00
2018-07-25T03:51:34.221Z,100933.00
2018-07-25T03:54:03.066Z,100936.00
2018-07-25T03:56:31.890Z,100938.00
2018-07-25T03:59:00.691Z,100939.00
2018-07-25T04:01:29.545Z,100934.00
2018-07-25T04:03:58.363Z,100946.00
2018-07-25T04:06:27.231Z,100936.00
2018-07-25T04:08:56.107Z,100940.00
2018-07-25T04:11:24.932Z,100941.00
2018-07-25T04:13:53.735Z,100943.00
2018-07-25T04:16:22.572Z,100939.00
2018-07-25T04:18:51.423Z,100939.00
2018-07-25T04:21:20.219Z,100936.00
2018-07-25T04:23:49.043Z,100940.00
2018-07-25T04:26:17.852Z,100942.00
2018-07-25T04:28:46.689Z,100955.00
2018-07-25T04:31:15.510Z,100954.00
2018-07-25T04:33:44.308Z,100956.00
2018-07-25T04:36:13.139Z,100965.00
2018-07-25T04:38:42.004Z,100963.00
2018-07-25T04:41:10.835Z,100967.00
2018-07-25T04:43:39.705Z,100963.00
2018-07-25T04:46:08.620Z,100964.00
2018-07-25T04:48:37.412Z,100963.00
2018-07-25T04:51:06.377Z,100955.00
2018-07-25T04:53:35.330Z,100956.00
2018-07-25T04:56:04.243Z,100958.00
2018-07-25T04:58:33.021Z,100953.00
2018-07-25T05:01:01.920Z,100954.00
2018-07-25T05:03:30.723Z,100960.00
2018-07-25T05:05:59.538Z,100961.00
2018-07-25T05:08:28.371Z,100960.00
2018-07-25T05:10:57.248Z,100964.00
2018-07-25T05:13:26.919Z,100966.00
2018-07-25T05:15:55.822Z,100964.00
2018-07-25T05:18:24.626Z,100963.00
2018-07-25T05:20:53.489Z,100971.00
2018-07-25T05:23:22.361Z,100967.00
2018-07-25T05:25:51.136Z,100964.00
2018-07-25T05:28:19.991Z,100966.00
2018-07-25T05:30:48.806Z,100968.00
2018-07-25T05:33:17.640Z,100965.00
2018-07-25T05:35:46.487Z,100972.00
2018-07-25T05:38:15.385Z,100978.00
2018-07-25T05:40:44.176Z,100971.00
2018-07-25T05:43:12.966Z,100969.00
2018-07-25T05:45:41.804Z,100967.00
2018-07-25T05:48:10.664Z,100967.00
2018-07-25T05:50:39.585Z,100970.00
2018-07-25T05:53:08.457Z,100971.00
2018-07-25T05:55:37.301Z,100975.00
2018-07-25T05:58:06.114Z,100978.00
2018-07-25T06:00:34.918Z,100976.00
2018-07-25T06:03:03.860Z,100984.00
2018-07-25T06:05:32.624Z,100985.00
2018-07-25T06:08:01.460Z,100991.00
2018-07-25T06:10:31.141Z,100984.00
2018-07-25T06:13:00.054Z,100990.00
2018-07-25T06:15:28.884Z,100993.00
2018-07-25T06:17:57.690Z,100995.00
2018-07-25T06:20:26.564Z,100990.00
2018-07-25T06:22:55.387Z,101000.00
2018-07-25T06:25:24.207Z,101003.00
2018-07-25T06:27:53.377Z,101002.00
2018-07-25T06:30:22.393Z,101001.00
2018-07-25T06:32:51.277Z,100998.00
2018-07-25T06:35:20.116Z,101001.00
2018-07-25T06:37:48.977Z,100993.00
2018-07-25T06:40:17.807Z,100999.00
2018-07-25T06:42:46.656Z,101000.00
2018-07-25T06:45:15.507Z,101002.00
2018-07-25T06:47:44.336Z,101002.00
2018-07-25T06:50:13.199Z,101006.00
2018-07-25T06:52:42.092Z,101006.00
2018-07-25T06:55:10.985Z,101007.00
2018-07-25T06:57:39.815Z,101008.00
2018-07-25T07:00:08.794Z,101006.00
2018-07-25T07:02:37.639Z,101017.00
2018-07-25T07:05:06.475Z,101018.00
2018-07-25T07:07:35.322Z,101024.00
2018-07-25T07:10:04.430Z,101021.00
2018-07-25T07:12:33.263Z,101021.00
2018-07-25T07:15:02.092Z,101033.00
2018-07-25T07:17:31.023Z,101026.00
2018-07-25T07:19:59.856Z,101031.00
2018-07-25T07:22:28.762Z,101028.00
2018-07-25T07:24:57.614Z,101024.00
2018-07-25T07:27:26.471Z,101036.00
2018-07-25T07:29:55.310Z,101032.00
2018-07-25T07:32:24.218Z,101031.00
2018-07-25T07:34:53.047Z,101028.00
2018-07-25T07:37:21.995Z,101023.00
2018-07-25T07:39:50.750Z,101030.00
2018-07-25T07:42:19.555Z,101028.00
2018-07-25T07:44:48.548Z,101029.00
2018-07-25T07:47:17.432Z,101032.00
2018-07-25T07:49:46.254Z,101029.00
2018-07-25T07:52:15.100Z,101032.00
2018-07-25T07:54:44.009Z,101028.00
2018-07-25T07:57:12.843Z,101036.00
2018-07-25T07:59:41.728Z,101032.00
2018-07-25T08:02:10.615Z,101028.00
2018-07-25T08:04:39.448Z,101037.00
2018-07-25T08:07:08.301Z,101034.00
2018-07-25T08:09:37.171Z,101029.00
2018-07-25T08:12:06.103Z,101030.00
2018-07-25T08:14:35.022Z,101022.00
2018-07-25T08:17:03.907Z,101026.00
2018-07-25T08:19:32.751Z,101037.00
2018-07-25T08:22:01.617Z,101024.00
2018-07-25T08:24:30.451Z,101023.00
2018-07-25T08:26:59.486Z,101024.00
2018-07-25T08:29:28.308Z,101028.00
2018-07-25T08:31:57.157Z,101024.00
2018-07-25T08:34:26.073Z,101022.00
2018-07-25T08:36:54.884Z,101022.00
2018-07-25T08:39:23.716Z,101017.00
2018-07-25T08:41:52.590Z,101025.00
2018-07-25T08:44:21.420Z,101037.00
2018-07-25T08:46:50.318Z,101021.00
2018-07-25T08:49:19.834Z,101021.00
2018-07-25T08:51:48.720Z,101019.00
2018-07-25T08:54:17.524Z,101022.00
2018-07-25T08:56:46.363Z,101023.00
2018-07-25T08:59:15.163Z,101023.00
2018-07-25T09:01:44.025Z,101019.00
2018-07-25T09:04:12.887Z,101018.00
2018-07-25T09:06:41.800Z,101014.00
2018-07-25T09:09:11.297Z,101012.00
2018-07-25T09:11:40.176Z,101017.00
2018-07-25T09:14:09.040Z,101016.00
2018-07-25T09:16:37.909Z,101019.00
2018-07-25T09:19:06.767Z,101021.00
2018-07-25T09:21:35.586Z,101019.00
2018-07-25T09:24:04.432Z,101015.00
2018-07-25T09:26:33.231Z,101017.00
2018-07-25T09:29:02.018Z,101020.00
2018-07-25T09:31:30.852Z,101021.00
2018-07-25T09:33:59.717Z,101021.00
2018-07-25T09:36:28.527Z,101019.00
2018-07-25T09:38:57.432Z,101018.00
2018-07-25T09:41:26.246Z,101022.00
2018-07-25T09:43:55.108Z,101020.00
2018-07-25T09:46:23.948Z,101020.00
2018-07-25T09:48:52.788Z,101013.00
2018-07-25T09:51:21.848Z,101015.00
2018-07-25T09:53:50.720Z,101009.00
2018-07-25T09:56:19.614Z,101014.00
2018-07-25T09:58:48.555Z,101015.00
2018-07-25T10:01:17.360Z,101015.00
2018-07-25T10:03:46.171Z,101007.00
2018-07-25T10:06:15.034Z,101001.00
2018-07-25T10:08:43.885Z,100995.00
2018-07-25T10:11:12.731Z,101005.00
2018-07-25T10:13:41.584Z,101014.00
2018-07-25T10:16:10.444Z,101010.00
2018-07-25T10:18:39.337Z,101007.00
2018-07-25T10:21:08.207Z,100999.00
2018-07-25T10:23:37.060Z,100995.00
2018-07-25T10:26:05.956Z,101002.00
2018-07-25T10:28:34.803Z,101000.00
2018-07-25T10:31:03.677Z,101003.00
2018-07-25T10:33:32.499Z,101000.00
2018-07-25T10:36:07.686Z,100991.00
2018-07-25T10:38:36.560Z,100996.00
2018-07-25T10:41:05.450Z,100994.00
2018-07-25T10:43:34.287Z,100994.00
2018-07-25T10:46:03.158Z,100990.00
2018-07-25T10:48:31.986Z,100992.00
2018-07-25T10:51:00.865Z,100996.00
2018-07-25T10:53:29.773Z,100998.00
2018-07-25T10:55:58.695Z,100996.00
2018-07-25T10:58:27.472Z,100998.00
2018-07-25T11:00:56.460Z,100990.00
2018-07-25T11:03:25.313Z,100991.00
2018-07-25T11:05:54.160Z,100996.00
2018-07-25T11:08:22.992Z,100989.00
2018-07-25T11:10:51.843Z,100988.00
2018-07-25T11:13:23.628Z,100992.00
2018-07-25T11:15:52.511Z,100978.00
2018-07-25T11:18:21.351Z,100984.00
2018-07-25T11:20:50.244Z,100983.00
2018-07-25T11:23:19.128Z,100985.00
2018-07-25T11:25:47.951Z,100989.00
2018-07-25T11:28:16.875Z,100985.00
2018-07-25T11:30:45.694Z,100985.00
2018-07-25T11:33:14.545Z,100986.00
2018-07-25T11:35:43.339Z,100986.00
2018-07-25T11:38:12.246Z,100986.00
2018-07-25T11:40:41.036Z,100985.00
2018-07-25T11:43:09.871Z,100980.00
2018-07-25T11:45:38.712Z,100982.00
2018-07-25T11:48:07.541Z,100974.00
2018-07-25T11:50:36.403Z,100976.00
2018-07-25T11:53:05.305Z,100976.00
2018-07-25T11:55:34.170Z,100977.00
2018-07-25T11:58:03.035Z,100971.00
2018-07-25T12:00:31.914Z,100979.00
2018-07-25T12:03:00.773Z,100975.00
2018-07-25T12:05:32.482Z,100966.00
2018-07-25T12:08:01.335Z,100971.00
2018-07-25T12:10:30.193Z,100964.00
2018-07-25T12:12:59.073Z,100964.00
2018-07-25T12:15:27.792Z,100952.00
2018-07-25T12:17:56.637Z,100963.00
2018-07-25T12:20:25.495Z,100956.00
2018-07-25T12:22:54.304Z,100943.00
2018-07-25T12:25:23.616Z,100962.00
2018-07-25T12:27:52.861Z,100958.00
2018-07-25T12:30:22.514Z,100955.00
2018-07-25T12:32:58.174Z,100947.00
2018-07-25T12:35:27.031Z,100945.00
2018-07-25T12:37:55.928Z,100934.00
2018-07-25T12:40:24.802Z,100926.00
2018-07-25T12:42:53.669Z,100925.00
2018-07-25T12:45:22.509Z,100935.00
2018-07-25T12:50:48.810Z,100929.00
2018-07-25T12:53:17.722Z,100930.00
2018-07-25T12:55:46.536Z,100933.00
2018-07-25T12:58:15.347Z,100918.00
2018-07-25T13:00:46.292Z,100914.00
2018-07-25T13:03:15.153Z,100920.00
2018-07-25T13:05:44.003Z,100912.00
2018-07-25T13:08:12.818Z,100904.00
2018-07-25T13:10:41.669Z,100905.00
2018-07-25T13:13:10.582Z,100899.00
2018-07-25T13:15:39.419Z,100899.00
2018-07-25T13:18:08.276Z,100900.00
2018-07-25T13:20:37.216Z,100893.00
2018-07-25T13:23:06.262Z,100890.00
2018-07-25T13:25:35.059Z,100900.00
2018-07-25T13:28:03.980Z,100897.00
2018-07-25T13:30:33.002Z,100892.00
2018-07-25T13:33:01.955Z,100883.00
2018-07-25T13:35:31.435Z,100893.00
2018-07-25T13:38:00.298Z,100911.00
2018-07-25T13:40:29.097Z,100911.00
2018-07-25T13:42:58.049Z,100903.00
2018-07-25T13:45:26.883Z,100900.00
2018-07-25T13:47:55.736Z,100892.00
2018-07-25T13:50:24.583Z,100892.00
2018-07-25T13:52:53.434Z,100890.00
2018-07-25T13:55:22.254Z,100884.00
2018-07-25T13:57:51.082Z,100881.00
2018-07-25T14:00:20.028Z,100877.00
2018-07-25T14:02:48.890Z,100873.00
2018-07-25T14:05:17.808Z,100877.00
2018-07-25T14:07:46.571Z,100872.00
2018-07-25T14:10:15.375Z,100857.00
2018-07-25T14:12:44.244Z,100860.00
2018-07-25T14:15:13.068Z,100863.00
2018-07-25T14:17:41.980Z,100870.00
2018-07-25T14:20:10.845Z,100873.00
2018-07-25T14:22:39.637Z,100874.00
2018-07-25T14:25:08.534Z,100879.00
2018-07-25T14:27:37.611Z,100863.00
2018-07-25T14:30:06.563Z,100857.00
2018-07-25T14:32:35.437Z,100861.00
2018-07-25T14:35:04.256Z,100848.00
2018-07-25T14:37:33.165Z,100844.00
2018-07-25T14:40:02.055Z,100851.00
2018-07-25T14:42:30.831Z,100848.00
2018-07-25T14:44:59.788Z,100844.00
2018-07-25T14:47:28.544Z,100834.00
2018-07-25T14:49:57.407Z,100847.00
2018-07-25T14:52:26.428Z,100845.00
2018-07-25T14:54:55.263Z,100850.00
2018-07-25T14:57:24.273Z,100854.00
2018-07-25T14:59:53.187Z,100839.00
2018-07-25T15:02:22.080Z,100844.00
2018-07-25T15:04:50.935Z,100849.00
2018-07-25T15:10:17.199Z,100837.00
2018-07-25T15:12:51.372Z,100845.00
2018-07-25T15:15:20.268Z,100833.00
2018-07-25T15:17:49.183Z,100844.00
2018-07-25T15:20:18.010Z,100845.00
2018-07-25T15:22:46.917Z,100828.00
2018-07-25T15:25:15.768Z,100833.00
2018-07-25T15:27:44.764Z,100838.00
2018-07-25T15:30:13.641Z,100838.00
2018-07-25T15:32:42.645Z,100838.00
2018-07-25T15:35:11.628Z,100828.00
2018-07-25T15:37:40.426Z,100836.00
2018-07-25T15:40:09.605Z,100833.00
2018-07-25T15:42:38.406Z,100830.00
2018-07-25T15:45:07.537Z,100830.00
2018-07-25T15:47:36.405Z,100829.00
2018-07-25T15:50:06.203Z,100833.00
2018-07-25T15:52:35.034Z,100831.00
2018-07-25T15:55:03.921Z,100831.00
2018-07-25T15:57:32.788Z,100829.00
2018-07-25T16:00:01.658Z,100830.00
2018-07-25T16:02:30.539Z,100824.00
2018-07-25T16:04:59.416Z,100825.00
2018-07-25T16:07:28.346Z,100824.00
2018-07-25T16:09:57.182Z,100824.00
2018-07-25T16:12:26.008Z,100831.00
2018-07-25T16:14:54.887Z,100829.00
2018-07-25T16:17:23.727Z,100839.00
2018-07-25T16:19:52.544Z,100833.00
2018-07-25T16:22:21.345Z,100828.00
2018-07-25T16:24:50.273Z,100831.00
2018-07-25T16:27:19.157Z,100831.00
2018-07-25T16:29:48.000Z,100836.00
2018-07-25T16:32:16.852Z,100843.00
2018-07-25T16:34:45.784Z,100832.00
2018-07-25T16:37:14.627Z,100838.00
2018-07-25T16:39:43.418Z,100834.00
2018-07-25T16:42:12.272Z,100835.00
2018-07-25T16:44:41.111Z,100835.00
2018-07-25T16:47:10.223Z,100843.00
2018-07-25T16:49:39.097Z,100833.00
2018-07-25T16:52:07.984Z,100835.00
2018-07-25T16:54:36.888Z,100834.00
2018-07-25T16:57:05.924Z,100835.00
2018-07-25T16:59:34.858Z,100830.00
2018-07-25T17:02:03.761Z,100836.00
2018-07-25T17:04:32.684Z,100843.00
2018-07-25T17:07:01.579Z,100846.00
2018-07-25T17:09:30.456Z,100844.00
2018-07-25T17:11:59.302Z,100852.00
2018-07-25T17:14:28.186Z,100850.00
2018-07-25T17:16:57.095Z,100847.00
2018-07-25T17:19:26.751Z,100846.00
2018-07-25T17:21:55.615Z,100850.00
2018-07-25T17:24:24.444Z,100848.00
2018-07-25T17:26:53.360Z,100856.00
2018-07-25T17:29:22.199Z,100853.00
2018-07-25T17:31:51.003Z,100859.00
2018-07-25T17:34:19.847Z,100853.00
2018-07-25T17:36:48.741Z,100853.00
2018-07-25T17:39:17.611Z,100859.00
2018-07-25T17:41:46.515Z,100852.00
2018-07-25T17:44:16.129Z,100861.00
2018-07-25T17:46:45.067Z,100864.00
2018-07-25T17:49:13.911Z,100862.00
2018-07-25T17:51:42.816Z,100863.00
2018-07-25T17:54:11.773Z,100864.00
2018-07-25T17:56:56.175Z,100866.00
2018-07-25T17:59:24.944Z,100865.00
2018-07-25T18:01:53.801Z,100875.00
2018-07-25T18:04:22.699Z,100868.00
2018-07-25T18:06:51.604Z,100872.00
2018-07-25T18:09:20.480Z,100874.00
2018-07-25T18:11:49.370Z,100876.00
2018-07-25T18:14:18.248Z,100871.00
2018-07-25T18:16:47.107Z,100879.00
2018-07-25T18:19:16.626Z,100879.00
2018-07-25T18:21:46.021Z,100869.00
2018-07-25T18:24:14.867Z,100877.00
2018-07-25T18:26:43.687Z,100873.00
2018-07-25T18:29:12.599Z,100886.00
2018-07-25T18:31:42.091Z,100884.00
2018-07-25T18:34:10.955Z,100888.00
2018-07-25T18:36:39.950Z,100893.00
2018-07-25T18:39:11.163Z,100888.00
2018-07-25T18:41:40.587Z,100891.00
2018-07-25T18:44:10.040Z,100895.00
2018-07-25T18:46:39.320Z,100893.00
2018-07-25T18:49:08.382Z,100888.00
2018-07-25T18:51:37.316Z,100891.00
2018-07-25T18:54:06.158Z,100897.00
2018-07-25T18:56:35.041Z,100900.00
2018-07-25T18:59:03.868Z,100900.00
2018-07-25T19:01:32.671Z,100914.00
2018-07-25T19:04:01.509Z,100912.00
2018-07-25T19:06:30.299Z,100921.00
2018-07-25T19:08:59.160Z,100919.00
2018-07-25T19:11:28.738Z,100917.00
2018-07-25T19:14:03.084Z,100928.00
2018-07-25T19:16:31.940Z,100935.00
2018-07-25T19:19:00.772Z,100940.00
2018-07-25T19:21:29.590Z,100934.00
2018-07-25T19:23:58.399Z,100938.00
2018-07-25T19:26:27.207Z,100942.00
2018-07-25T19:28:56.052Z,100944.00
2018-07-25T19:31:25.640Z,100947.00
2018-07-25T19:33:54.908Z,100954.00
2018-07-25T19:36:23.853Z,100955.00
2018-07-25T19:38:52.654Z,100953.00
2018-07-25T19:41:22.236Z,100951.00
2018-07-25T19:43:51.130Z,100959.00
2018-07-25T19:46:19.948Z,100961.00
2018-07-25T19:48:48.766Z,100953.00
2018-07-25T19:51:17.641Z,100953.00
2018-07-25T19:53:46.465Z,100958.00
2018-07-25T19:56:15.274Z,100961.00
2018-07-25T19:58:44.121Z,100966.00
2018-07-25T20:01:12.981Z,100967.00
2018-07-25T20:03:41.868Z,100961.00
2018-07-25T20:06:11.865Z,100962.00
2018-07-25T20:08:40.969Z,100964.00
2018-07-25T20:11:10.153Z,100959.00
2018-07-25T20:13:44.402Z,100965.00
2018-07-25T20:16:13.252Z,100965.00
2018-07-25T20:18:42.117Z,100968.00
2018-07-25T20:21:11.021Z,100970.00
2018-07-25T20:23:39.880Z,100969.00
2018-07-25T20:26:08.723Z,100967.00
2018-07-25T20:28:38.820Z,100970.00
2018-07-25T20:31:07.676Z,100977.00
2018-07-25T20:33:36.530Z,100971.00
2018-07-25T20:36:05.615Z,100966.00
2018-07-25T20:38:34.460Z,100968.00
2018-07-25T20:41:03.311Z,100973.00
2018-07-25T20:43:32.115Z,100966.00
2018-07-25T20:46:01.012Z,100976.00
2018-07-25T20:48:30.784Z,100968.00
2018-07-25T20:50:59.912Z,100975.00
2018-07-25T20:53:28.785Z,100972.00
2018-07-25T20:55:57.925Z,100971.00
2018-07-25T20:58:26.847Z,100977.00
2018-07-25T21:00:55.703Z,100978.00
2018-07-25T21:03:24.836Z,100978.00
2018-07-25T21:05:53.674Z,100984.00
2018-07-25T21:08:22.609Z,100982.00
2018-07-25T21:10:51.521Z,100983.00
2018-07-25T21:13:20.460Z,100995.00
2018-07-25T21:15:49.306Z,100989.00
2018-07-25T21:18:18.193Z,100985.00
2018-07-25T21:20:47.007Z,100990.00
2018-07-25T21:23:15.872Z,100992.00
2018-07-25T21:25:44.760Z,100992.00
2018-07-25T21:28:13.623Z,100999.00
2018-07-25T21:30:42.442Z,101004.00
2018-07-25T21:33:11.296Z,101016.00
2018-07-25T21:35:40.202Z,101006.00
2018-07-25T21:38:09.032Z,101006.00
2018-07-25T21:40:37.886Z,101010.00
2018-07-25T21:43:06.860Z,101015.00
2018-07-25T21:45:35.682Z,101012.00
2018-07-25T21:48:04.562Z,101012.00
2018-07-25T21:50:33.424Z,101019.00
2018-07-25T21:53:02.262Z,101015.00
2018-07-25T21:55:31.154Z,101018.00
2018-07-25T21:58:00.045Z,101005.00
2018-07-25T22:00:28.909Z,101012.00
2018-07-25T22:02:57.714Z,101006.00
2018-07-25T22:05:26.540Z,101025.00
2018-07-25T22:07:55.359Z,101022.00
2018-07-25T22:10:26.019Z,101025.00
2018-07-25T22:12:56.188Z,101030.00
2018-07-25T22:15:25.081Z,101028.00
2018-07-25T22:17:53.938Z,101028.00
2018-07-25T22:20:22.969Z,101030.00
2018-07-25T22:22:51.804Z,101027.00
2018-07-25T22:25:20.628Z,101027.00
2018-07-25T22:27:49.535Z,101029.00
2018-07-25T22:30:18.429Z,101028.00
2018-07-25T22:32:47.513Z,101041.00
2018-07-25T22:35:16.426Z,101039.00
2018-07-25T22:37:45.237Z,101028.00
2018-07-25T22:40:13.951Z,101033.00
2018-07-25T22:42:42.770Z,101040.00
2018-07-25T22:45:11.630Z,101036.00
2018-07-25T22:47:40.479Z,101032.00
2018-07-25T22:50:09.266Z,101035.00
2018-07-25T22:52:38.108Z,101043.00
2018-07-25T22:55:07.128Z,101037.00
2018-07-25T22:57:35.989Z,101046.00
2018-07-25T23:00:05.289Z,101046.00
2018-07-25T23:02:34.143Z,101047.00
2018-07-25T23:05:03.016Z,101039.00
2018-07-25T23:07:31.894Z,101044.00
2018-07-25T23:10:00.822Z,101044.00
2018-07-25T23:12:29.839Z,101039.00
2018-07-25T23:14:58.659Z,101045.00
2018-07-25T23:17:27.508Z,101041.00
2018-07-25T23:19:56.370Z,101044.00
2018-07-25T23:22:25.131Z,101043.00
2018-07-25T23:24:53.987Z,101043.00
2018-07-25T23:27:22.808Z,101046.00
2018-07-25T23:29:51.652Z,101042.00
2018-07-25T23:32:20.480Z,101039.00
2018-07-25T23:34:49.374Z,101042.00
2018-07-25T23:37:18.280Z,101041.00
2018-07-25T23:39:47.070Z,101040.00
2018-07-25T23:42:15.878Z,101032.00
2018-07-25T23:44:44.745Z,101035.00
2018-07-25T23:47:13.580Z,101031.00
2018-07-25T23:49:42.453Z,101034.00
2018-07-25T23:52:11.368Z,101030.00
2018-07-25T23:54:40.260Z,101027.00
2018-07-25T23:57:09.088Z,101032.00
2018-07-25T23:59:37.939Z,101027.00
